createdAt,value
2018-08-02T00:00:14.131Z,3.43
2018-08-02T00:02:43.315Z,3.33
2018-08-02T00:05:14.307Z,3.23
2018-08-02T00:07:43.380Z,3.10
2018-08-02T00:10:13.514Z,3.20
2018-08-02T00:12:43.320Z,3.20
2018-08-02T00:15:12.517Z,3.10
2018-08-02T00:17:41.290Z,3.23
2018-08-02T00:20:11.203Z,2.83
2018-08-02T00:22:42.276Z,3.37
2018-08-02T00:25:11.235Z,3.10
2018-08-02T00:27:40.255Z,3.07
2018-08-02T00:30:09.706Z,3.30
2018-08-02T00:32:39.993Z,3.07
2018-08-02T00:35:08.867Z,2.97
2018-08-02T00:37:39.665Z,3.63
2018-08-02T00:40:09.832Z,3.13
2018-08-02T00:42:38.591Z,3.07
2018-08-02T00:45:07.574Z,3.10
2018-08-02T00:47:36.408Z,3.03
2018-08-02T00:50:06.218Z,3.00
2018-08-02T00:52:36.452Z,2.70
2018-08-02T00:55:05.712Z,3.53
2018-08-02T00:57:42.368Z,3.00
2018-08-02T01:00:11.453Z,2.60
2018-08-02T01:02:40.229Z,3.20
2018-08-02T01:05:09.277Z,3.10
2018-08-02T01:07:39.888Z,2.83
2018-08-02T01:10:09.004Z,2.90
2018-08-02T01:12:38.163Z,2.90
2018-08-02T01:15:07.149Z,3.13
2018-08-02T01:17:36.000Z,2.73
2018-08-02T01:20:06.809Z,3.10
2018-08-02T01:22:38.529Z,3.37
2018-08-02T01:25:08.557Z,3.23
2018-08-02T01:27:37.966Z,3.20
2018-08-02T01:30:07.473Z,3.00
2018-08-02T01:32:36.464Z,3.17
2018-08-02T01:35:05.573Z,3.27
2018-08-02T01:37:34.764Z,3.20
2018-08-02T01:40:03.586Z,3.23
2018-08-02T01:42:32.556Z,3.00
2018-08-02T01:45:01.720Z,3.10
2018-08-02T01:47:30.760Z,3.00
2018-08-02T01:50:00.473Z,2.90
2018-08-02T01:52:29.764Z,2.60
2018-08-02T01:54:58.692Z,3.00
2018-08-02T01:57:27.444Z,2.90
2018-08-02T01:59:56.432Z,2.70
2018-08-02T02:02:25.424Z,2.70
2018-08-02T02:04:54.326Z,2.90
2018-08-02T02:07:23.069Z,2.83
2018-08-02T02:09:52.768Z,3.00
2018-08-02T02:12:21.519Z,2.87
2018-08-02T02:14:51.089Z,3.10
2018-08-02T02:17:20.405Z,3.33
2018-08-02T02:19:49.511Z,3.17
2018-08-02T02:22:18.747Z,3.00
2018-08-02T02:24:47.948Z,2.90
2018-08-02T02:27:17.900Z,2.80
2018-08-02T02:29:47.297Z,2.80
2018-08-02T02:32:16.072Z,2.90
2018-08-02T02:34:49.718Z,2.60
2018-08-02T02:37:21.351Z,2.47
2018-08-02T02:39:50.742Z,3.00
2018-08-02T02:42:19.706Z,2.77
2018-08-02T02:44:48.487Z,3.30
2018-08-02T02:47:17.409Z,2.97
2018-08-02T02:49:48.652Z,3.40
2018-08-02T02:52:21.157Z,3.00
2018-08-02T02:54:50.238Z,2.93
2018-08-02T02:57:22.665Z,3.03
2018-08-02T02:59:51.617Z,2.87
2018-08-02T03:02:20.622Z,2.83
2018-08-02T03:04:49.606Z,2.57
2018-08-02T03:07:19.221Z,3.03
2018-08-02T03:09:48.093Z,2.80
2018-08-02T03:12:17.071Z,2.93
2018-08-02T03:14:46.287Z,3.20
2018-08-02T03:17:15.041Z,2.93
2018-08-02T03:19:45.155Z,2.97
2018-08-02T03:22:14.054Z,2.83
2018-08-02T03:24:43.106Z,3.10
2018-08-02T03:27:11.925Z,2.83
2018-08-02T03:29:40.687Z,3.60
2018-08-02T03:32:10.134Z,3.10
2018-08-02T03:34:39.399Z,3.30
2018-08-02T03:37:08.512Z,3.30
2018-08-02T03:39:38.674Z,3.30
2018-08-02T03:42:08.457Z,3.17
2018-08-02T03:44:37.580Z,3.40
2018-08-02T03:47:06.642Z,3.00
2018-08-02T03:49:35.479Z,3.40
2018-08-02T03:52:05.924Z,3.20
2018-08-02T03:54:36.918Z,3.60
2018-08-02T03:57:06.135Z,3.30
2018-08-02T03:59:35.459Z,3.30
2018-08-02T04:02:04.292Z,3.23
2018-08-02T04:04:33.744Z,2.90
2018-08-02T04:07:04.676Z,3.33
2018-08-02T04:09:34.926Z,3.27
2018-08-02T04:12:04.037Z,3.10
2018-08-02T04:14:32.855Z,3.20
2018-08-02T04:17:02.553Z,2.97
2018-08-02T04:19:34.108Z,2.80
2018-08-02T04:22:02.771Z,3.13
2018-08-02T04:24:32.073Z,2.90
2018-08-02T04:27:00.864Z,3.00
2018-08-02T04:29:30.325Z,2.90
2018-08-02T04:32:01.797Z,2.60
2018-08-02T04:34:30.906Z,3.13
2018-08-02T04:36:59.934Z,3.10
2018-08-02T04:39:28.800Z,3.50
2018-08-02T04:41:57.593Z,3.50
2018-08-02T04:44:26.962Z,3.00
2018-08-02T04:46:55.841Z,3.43
2018-08-02T04:49:25.514Z,3.10
2018-08-02T04:51:54.687Z,3.73
2018-08-02T04:54:24.685Z,3.90
2018-08-02T04:56:53.847Z,3.70
2018-08-02T04:59:23.335Z,3.97
2018-08-02T05:01:52.106Z,4.13
2018-08-02T05:04:21.285Z,4.30
2018-08-02T05:06:51.335Z,4.13
2018-08-02T05:09:20.391Z,4.10
2018-08-02T05:11:49.555Z,3.70
2018-08-02T05:14:18.773Z,3.97
2018-08-02T05:16:47.619Z,3.63
2018-08-02T05:19:16.589Z,3.33
2018-08-02T05:21:45.781Z,3.50
2018-08-02T05:24:14.598Z,3.70
2018-08-02T05:26:43.795Z,3.30
2018-08-02T05:29:12.981Z,3.83
2018-08-02T05:31:41.774Z,3.60
2018-08-02T05:34:10.662Z,3.13
2018-08-02T05:36:41.783Z,3.40
2018-08-02T05:39:13.014Z,3.57
2018-08-02T05:41:42.646Z,3.90
2018-08-02T05:44:11.499Z,3.53
2018-08-02T05:46:42.167Z,3.73
2018-08-02T05:49:12.026Z,3.87
2018-08-02T05:51:41.447Z,3.80
2018-08-02T05:54:13.654Z,3.53
2018-08-02T05:56:43.299Z,3.73
2018-08-02T05:59:12.668Z,3.90
2018-08-02T06:01:41.644Z,3.90
2018-08-02T06:04:11.600Z,3.63
2018-08-02T06:06:40.455Z,3.50
2018-08-02T06:09:12.327Z,3.70
2018-08-02T06:11:41.481Z,3.37
2018-08-02T06:14:11.282Z,3.43
2018-08-02T06:16:40.939Z,3.80
2018-08-02T06:19:10.408Z,3.57
2018-08-02T06:21:41.257Z,3.80
2018-08-02T06:24:10.276Z,3.70
2018-08-02T06:26:39.420Z,3.20
2018-08-02T06:29:08.573Z,3.60
2018-08-02T06:31:37.659Z,3.63
2018-08-02T06:34:07.100Z,3.60
2018-08-02T06:36:39.019Z,3.40
2018-08-02T06:39:12.037Z,3.63
2018-08-02T06:41:41.305Z,3.70
2018-08-02T06:44:10.607Z,3.40
2018-08-02T06:46:41.957Z,3.63
2018-08-02T06:49:10.795Z,4.30
2018-08-02T06:51:40.019Z,3.90
2018-08-02T06:54:09.412Z,4.23
2018-08-02T06:56:39.639Z,4.50
2018-08-02T06:59:09.610Z,4.63
2018-08-02T07:01:41.410Z,4.53
2018-08-02T07:04:10.418Z,4.50
2018-08-02T07:06:39.720Z,4.80
2018-08-02T07:09:10.729Z,5.20
2018-08-02T07:11:39.734Z,4.67
2018-08-02T07:14:11.033Z,4.80
2018-08-02T07:16:39.951Z,4.90
2018-08-02T07:19:08.909Z,4.33
2018-08-02T07:21:37.791Z,4.10
2018-08-02T07:24:06.885Z,4.60
2018-08-02T07:26:36.163Z,4.90
2018-08-02T07:29:05.268Z,4.30
2018-08-02T07:31:34.343Z,4.20
2018-08-02T07:34:03.153Z,4.47
2018-08-02T07:36:32.207Z,4.47
2018-08-02T07:39:01.032Z,4.30
2018-08-02T07:41:30.441Z,3.90
2018-08-02T07:43:59.955Z,4.40
2018-08-02T07:46:29.152Z,4.10
2018-08-02T07:48:58.733Z,4.07
2018-08-02T07:51:29.202Z,4.40
2018-08-02T07:54:00.033Z,3.73
2018-08-02T07:56:30.040Z,3.70
2018-08-02T07:58:59.116Z,3.70
2018-08-02T08:01:28.365Z,3.53
2018-08-02T08:03:57.975Z,3.60
2018-08-02T08:06:27.648Z,3.87
2018-08-02T08:08:56.468Z,3.10
2018-08-02T08:11:25.277Z,3.77
2018-08-02T08:13:54.175Z,3.50
2018-08-02T08:16:22.980Z,3.92
2018-08-02T08:18:52.182Z,3.47
2018-08-02T08:21:21.728Z,3.42
2018-08-02T08:23:51.009Z,3.35
2018-08-02T08:26:20.169Z,3.12
2018-08-02T08:28:49.053Z,3.35
2018-08-02T08:31:18.559Z,3.25
2018-08-02T08:33:47.741Z,2.87
2018-08-02T08:36:20.539Z,3.12
2018-08-02T08:38:50.882Z,2.90
2018-08-02T08:41:20.252Z,3.10
2018-08-02T08:43:49.298Z,2.70
2018-08-02T08:46:18.520Z,2.72
2018-08-02T08:48:47.553Z,3.00
2018-08-02T08:51:17.797Z,2.70
2018-08-02T08:53:47.244Z,2.45
2018-08-02T08:56:16.412Z,2.87
2018-08-02T08:58:56.584Z,3.33
2018-08-02T09:01:25.617Z,2.80
2018-08-02T09:03:54.606Z,2.72
2018-08-02T09:06:23.408Z,2.87
2018-08-02T09:08:53.177Z,2.58
2018-08-02T09:11:22.353Z,2.72
2018-08-02T09:13:51.729Z,2.80
2018-08-02T09:16:20.931Z,2.67
2018-08-02T09:18:50.041Z,2.70
2018-08-02T09:21:20.380Z,2.83
2018-08-02T09:23:49.578Z,2.70
2018-08-02T09:26:19.952Z,2.30
2018-08-02T09:28:48.776Z,2.65
2018-08-02T09:31:17.488Z,2.05
2018-08-02T09:33:46.277Z,2.27
2018-08-02T09:36:15.089Z,2.40
2018-08-02T09:38:44.530Z,2.25
2018-08-02T09:41:13.504Z,2.33
2018-08-02T09:43:42.489Z,2.52
2018-08-02T09:46:11.290Z,2.60
2018-08-02T09:48:40.129Z,2.45
2018-08-02T09:51:09.007Z,2.22
2018-08-02T09:53:38.552Z,2.45
2018-08-02T09:56:07.496Z,2.77
2018-08-02T09:58:36.825Z,2.70
2018-08-02T10:01:11.336Z,2.50
2018-08-02T10:03:40.607Z,2.90
2018-08-02T10:06:09.475Z,2.65
2018-08-02T10:08:38.272Z,2.20
2018-08-02T10:11:07.842Z,2.27
2018-08-02T10:13:36.748Z,2.45
2018-08-02T10:16:06.080Z,2.87
2018-08-02T10:18:35.073Z,2.52
2018-08-02T10:21:04.425Z,2.52
2018-08-02T10:23:35.912Z,2.27
2018-08-02T10:26:06.040Z,2.50
2018-08-02T10:28:35.388Z,2.12
2018-08-02T10:31:04.240Z,2.25
2018-08-02T10:33:33.047Z,2.00
2018-08-02T10:36:01.974Z,2.00
2018-08-02T10:38:31.148Z,2.30
2018-08-02T10:41:01.020Z,2.02
2018-08-02T10:43:30.015Z,2.20
2018-08-02T10:45:58.915Z,2.00
2018-08-02T10:48:28.189Z,2.02
2018-08-02T10:50:59.865Z,1.75
2018-08-02T10:53:29.842Z,2.00
2018-08-02T10:55:59.125Z,2.17
2018-08-02T10:58:27.358Z,2.08
2018-08-02T11:00:57.154Z,1.47
2018-08-02T11:03:26.404Z,2.10
2018-08-02T11:05:55.642Z,2.45
2018-08-02T11:08:25.033Z,1.98
2018-08-02T11:10:53.882Z,2.20
2018-08-02T11:13:24.328Z,2.15
2018-08-02T11:15:58.152Z,2.10
2018-08-02T11:18:27.476Z,1.92
2018-08-02T11:20:56.592Z,1.90
2018-08-02T11:23:25.861Z,2.27
2018-08-02T11:25:55.184Z,1.90
2018-08-02T11:28:24.265Z,1.60
2018-08-02T11:30:53.475Z,1.47
2018-08-02T11:33:23.259Z,2.17
2018-08-02T11:35:52.874Z,2.27
2018-08-02T11:38:22.216Z,1.87
2018-08-02T11:40:52.277Z,1.67
2018-08-02T11:43:22.118Z,1.80
2018-08-02T11:45:51.452Z,1.67
2018-08-02T11:48:20.604Z,2.00
2018-08-02T11:50:49.659Z,1.50
2018-08-02T11:53:20.303Z,1.57
2018-08-02T11:55:49.068Z,1.60
2018-08-02T11:58:18.195Z,1.17
2018-08-02T12:00:47.020Z,1.10
2018-08-02T12:03:15.839Z,1.80
2018-08-02T12:05:44.868Z,1.98
2018-08-02T12:08:14.453Z,1.55
2018-08-02T12:10:43.570Z,1.80
2018-08-02T12:13:12.711Z,1.50
2018-08-02T12:15:41.932Z,1.90
2018-08-02T12:18:11.097Z,1.85
2018-08-02T12:20:40.714Z,2.37
2018-08-02T12:23:09.813Z,1.47
2018-08-02T12:25:39.503Z,1.90
2018-08-02T12:28:08.345Z,1.90
2018-08-02T12:30:37.375Z,1.80
2018-08-02T12:33:06.583Z,1.65
2018-08-02T12:35:39.574Z,1.85
2018-08-02T12:38:11.228Z,1.80
2018-08-02T12:40:39.986Z,1.67
2018-08-02T12:43:08.769Z,2.12
2018-08-02T12:45:37.741Z,2.00
2018-08-02T12:48:10.016Z,2.02
2018-08-02T12:50:39.792Z,2.22
2018-08-02T12:53:09.249Z,2.08
2018-08-02T12:55:40.209Z,1.85
2018-08-02T12:58:09.168Z,2.25
2018-08-02T13:00:38.493Z,1.90
2018-08-02T13:03:07.430Z,1.55
2018-08-02T13:05:36.296Z,2.15
2018-08-02T13:08:05.468Z,2.10
2018-08-02T13:10:34.536Z,1.80
2018-08-02T13:13:04.038Z,2.00
2018-08-02T13:15:33.126Z,1.82
2018-08-02T13:18:02.293Z,2.10
2018-08-02T13:20:31.403Z,1.82
2018-08-02T13:23:01.103Z,1.82
2018-08-02T13:25:31.261Z,2.08
2018-08-02T13:28:00.763Z,1.87
2018-08-02T13:30:29.927Z,1.90
2018-08-02T13:32:59.251Z,1.85
2018-08-02T13:35:30.267Z,2.10
2018-08-02T13:38:01.305Z,1.80
2018-08-02T13:40:35.364Z,1.92
2018-08-02T13:43:06.464Z,1.80
2018-08-02T13:45:35.700Z,1.95
2018-08-02T13:48:05.152Z,1.95
2018-08-02T13:50:34.185Z,1.72
2018-08-02T13:53:03.689Z,2.00
2018-08-02T13:55:33.264Z,2.10
2018-08-02T13:58:02.579Z,1.90
2018-08-02T14:00:31.748Z,1.98
2018-08-02T14:03:01.090Z,2.10
2018-08-02T14:05:30.161Z,1.60
2018-08-02T14:07:59.783Z,2.17
2018-08-02T14:10:29.103Z,1.85
2018-08-02T14:12:58.619Z,1.92
2018-08-02T14:15:27.672Z,2.08
2018-08-02T14:17:56.500Z,1.87
2018-08-02T14:20:28.087Z,1.80
2018-08-02T14:22:57.367Z,1.98
2018-08-02T14:25:26.381Z,1.98
2018-08-02T14:27:55.416Z,2.00
2018-08-02T14:30:24.527Z,1.90
2018-08-02T14:32:53.546Z,2.10
2018-08-02T14:35:22.903Z,2.27
2018-08-02T14:37:55.380Z,2.17
2018-08-02T14:40:24.286Z,1.80
2018-08-02T14:42:53.693Z,1.95
2018-08-02T14:45:22.895Z,2.02
2018-08-02T14:47:51.682Z,2.02
2018-08-02T14:50:20.972Z,2.08
2018-08-02T14:52:50.374Z,1.77
2018-08-02T14:55:19.664Z,1.95
2018-08-02T14:57:49.487Z,1.80
2018-08-02T15:00:18.786Z,2.08
2018-08-02T15:02:48.510Z,2.10
2018-08-02T15:05:17.904Z,2.22
2018-08-02T15:07:46.730Z,2.20
2018-08-02T15:10:15.942Z,2.30
2018-08-02T15:12:46.557Z,2.00
2018-08-02T15:15:15.907Z,1.90
2018-08-02T15:17:45.228Z,2.08
2018-08-02T15:20:14.518Z,2.20
2018-08-02T15:22:43.496Z,2.22
2018-08-02T15:25:16.085Z,2.10
2018-08-02T15:27:44.987Z,2.10
2018-08-02T15:30:18.164Z,2.20
2018-08-02T15:32:46.985Z,2.37
2018-08-02T15:35:15.744Z,2.35
2018-08-02T15:37:44.732Z,1.80
2018-08-02T15:40:13.697Z,2.72
2018-08-02T15:42:43.292Z,2.15
2018-08-02T15:45:14.294Z,2.10
2018-08-02T15:47:43.799Z,2.50
2018-08-02T15:50:13.114Z,2.00
2018-08-02T15:52:42.528Z,1.90
2018-08-02T15:55:11.871Z,2.30
2018-08-02T15:57:41.541Z,2.50
2018-08-02T16:00:11.615Z,1.90
2018-08-02T16:02:41.831Z,1.92
2018-08-02T16:05:10.800Z,2.30
2018-08-02T16:07:44.122Z,2.40
2018-08-02T16:10:13.379Z,2.20
2018-08-02T16:12:42.167Z,2.10
2018-08-02T16:15:11.255Z,2.47
2018-08-02T16:17:40.320Z,2.00
2018-08-02T16:20:11.086Z,2.05
2018-08-02T16:22:41.883Z,2.20
2018-08-02T16:25:11.036Z,2.33
2018-08-02T16:27:39.788Z,2.55
2018-08-02T16:30:09.157Z,1.80
2018-08-02T16:32:38.472Z,1.95
2018-08-02T16:35:07.591Z,2.25
2018-08-02T16:37:37.289Z,2.20
2018-08-02T16:40:07.862Z,2.72
2018-08-02T16:42:36.901Z,2.27
2018-08-02T16:45:06.260Z,2.37
2018-08-02T16:47:35.089Z,2.50
2018-08-02T16:50:04.264Z,2.17
2018-08-02T16:52:34.489Z,2.35
2018-08-02T16:55:06.279Z,2.40
2018-08-02T16:57:37.568Z,2.27
2018-08-02T17:00:07.980Z,2.10
2018-08-02T17:02:36.808Z,2.50
2018-08-02T17:05:05.809Z,2.00
2018-08-02T17:07:34.807Z,2.40
2018-08-02T17:10:04.024Z,2.25
2018-08-02T17:12:34.088Z,2.40
2018-08-02T17:15:04.820Z,2.25
2018-08-02T17:17:33.807Z,2.30
2018-08-02T17:20:03.515Z,2.47
2018-08-02T17:22:32.444Z,2.20
2018-08-02T17:25:01.701Z,2.40
2018-08-02T17:27:31.115Z,2.30
2018-08-02T17:30:01.789Z,2.10
2018-08-02T17:32:34.123Z,2.67
2018-08-02T17:35:03.274Z,2.50
2018-08-02T17:37:32.063Z,2.30
2018-08-02T17:40:00.962Z,2.52
2018-08-02T17:42:30.040Z,2.20
2018-08-02T17:44:58.956Z,2.20
2018-08-02T17:47:29.136Z,2.50
2018-08-02T17:49:58.068Z,2.42
2018-08-02T17:52:27.265Z,2.72
2018-08-02T17:54:56.031Z,2.47
2018-08-02T17:57:24.808Z,2.65
2018-08-02T17:59:54.714Z,2.60
2018-08-02T18:02:27.424Z,2.72
2018-08-02T18:04:57.235Z,2.55
2018-08-02T18:07:29.095Z,2.45
2018-08-02T18:09:58.024Z,2.50
2018-08-02T18:12:27.240Z,2.62
2018-08-02T18:14:56.483Z,2.60
2018-08-02T18:17:25.633Z,2.75
2018-08-02T18:19:54.499Z,2.52
2018-08-02T18:22:23.948Z,2.60
2018-08-02T18:24:54.767Z,2.50
2018-08-02T18:27:24.148Z,2.50
2018-08-02T18:29:53.478Z,2.58
2018-08-02T18:32:22.267Z,2.72
2018-08-02T18:34:51.498Z,2.92
2018-08-02T18:37:20.477Z,2.50
2018-08-02T18:39:50.825Z,2.67
2018-08-02T18:42:21.464Z,2.30
2018-08-02T18:44:50.511Z,2.58
2018-08-02T18:47:20.512Z,2.60
2018-08-02T18:49:49.908Z,2.60
2018-08-02T18:52:19.072Z,2.80
2018-08-02T18:54:48.047Z,2.80
2018-08-02T18:57:19.563Z,2.52
2018-08-02T18:59:49.357Z,3.08
2018-08-02T19:02:19.749Z,2.98
2018-08-02T19:04:48.996Z,3.02
2018-08-02T19:07:18.535Z,3.40
2018-08-02T19:09:47.711Z,4.12
2018-08-02T19:12:16.798Z,3.40
2018-08-02T19:14:46.026Z,3.60
2018-08-02T19:17:15.875Z,3.67
2018-08-02T19:19:44.780Z,3.72
2018-08-02T19:22:13.971Z,3.55
2018-08-02T19:24:42.849Z,3.40
2018-08-02T19:27:12.082Z,3.50
2018-08-02T19:29:41.519Z,3.15
2018-08-02T19:32:11.464Z,3.50
2018-08-02T19:34:43.447Z,3.37
2018-08-02T19:37:12.252Z,3.30
2018-08-02T19:39:41.082Z,3.20
2018-08-02T19:42:10.251Z,3.27
2018-08-02T19:44:39.578Z,3.02
2018-08-02T19:47:10.032Z,3.30
2018-08-02T19:49:39.903Z,3.40
2018-08-02T19:52:09.527Z,4.00
2018-08-02T19:54:39.408Z,3.30
2018-08-02T19:57:08.874Z,2.72
2018-08-02T19:59:37.892Z,3.30
2018-08-02T20:02:06.866Z,3.20
2018-08-02T20:04:36.256Z,3.22
2018-08-02T20:07:07.431Z,2.98
2018-08-02T20:09:42.392Z,3.50
2018-08-02T20:12:11.764Z,3.17
2018-08-02T20:14:40.987Z,2.72
2018-08-02T20:17:09.824Z,3.00
2018-08-02T20:19:40.062Z,3.20
2018-08-02T20:22:14.642Z,3.70
2018-08-02T20:24:43.749Z,3.42
2018-08-02T20:27:14.262Z,3.17
2018-08-02T20:29:43.621Z,3.40
2018-08-02T20:32:15.884Z,3.10
2018-08-02T20:34:46.429Z,3.27
2018-08-02T20:37:15.505Z,3.60
2018-08-02T20:39:44.416Z,3.67
2018-08-02T20:42:13.273Z,2.90
2018-08-02T20:44:42.035Z,3.10
2018-08-02T20:47:12.677Z,3.02
2018-08-02T20:49:42.072Z,2.92
2018-08-02T20:52:12.575Z,3.42
2018-08-02T20:54:42.003Z,2.83
2018-08-02T20:57:11.309Z,3.25
2018-08-02T20:59:40.336Z,3.02
2018-08-02T21:02:09.721Z,3.15
2018-08-02T21:04:39.137Z,2.92
2018-08-02T21:07:10.579Z,3.00
2018-08-02T21:09:40.381Z,2.72
2018-08-02T21:12:09.385Z,3.25
2018-08-02T21:14:38.574Z,2.95
2018-08-02T21:17:07.620Z,3.17
2018-08-02T21:19:36.876Z,3.15
2018-08-02T21:22:07.696Z,3.20
2018-08-02T21:24:39.037Z,3.20
2018-08-02T21:27:08.003Z,3.37
2018-08-02T21:29:37.732Z,3.45
2018-08-02T21:32:06.800Z,3.33
2018-08-02T21:34:36.445Z,3.25
2018-08-02T21:37:05.708Z,3.15
2018-08-02T21:39:35.122Z,3.35
2018-08-02T21:42:04.958Z,3.10
2018-08-02T21:44:36.784Z,3.08
2018-08-02T21:47:06.251Z,3.77
2018-08-02T21:49:35.275Z,3.70
2018-08-02T21:52:04.183Z,3.80
2018-08-02T21:54:34.707Z,3.77
2018-08-02T21:57:05.905Z,3.70
2018-08-02T21:59:37.829Z,3.80
2018-08-02T22:02:07.277Z,3.92
2018-08-02T22:04:36.318Z,3.33
2018-08-02T22:07:10.036Z,3.60
2018-08-02T22:09:38.839Z,3.90
2018-08-02T22:12:12.844Z,4.03
2018-08-02T22:14:46.964Z,4.22
2018-08-02T22:17:15.793Z,4.00
2018-08-02T22:19:44.908Z,4.58
2018-08-02T22:22:15.209Z,4.58
2018-08-02T22:24:45.041Z,4.47
2018-08-02T22:27:14.521Z,4.28
2018-08-02T22:29:44.848Z,4.58
2018-08-02T22:32:14.165Z,4.80
2018-08-02T22:34:43.570Z,4.65
2018-08-02T22:37:12.792Z,4.80
2018-08-02T22:39:42.840Z,4.62
2018-08-02T22:42:11.696Z,4.87
2018-08-02T22:44:40.521Z,4.87
2018-08-02T22:47:09.467Z,4.70
2018-08-02T22:49:38.286Z,4.60
2018-08-02T22:52:09.120Z,4.90
2018-08-02T22:54:39.603Z,4.90
2018-08-02T22:57:09.095Z,5.30
2018-08-02T22:59:38.385Z,6.20
2018-08-02T23:02:07.396Z,5.83
2018-08-02T23:04:36.034Z,5.25
2018-08-02T23:07:05.275Z,6.10
2018-08-02T23:09:35.107Z,5.85
2018-08-02T23:12:04.905Z,6.08
2018-08-02T23:14:33.662Z,5.92
2018-08-02T23:17:01.931Z,5.65
2018-08-02T23:19:30.651Z,5.70
2018-08-02T23:21:59.332Z,5.65
2018-08-02T23:24:28.498Z,5.90
2018-08-02T23:26:57.916Z,6.25
2018-08-02T23:29:27.336Z,6.00
2018-08-02T23:31:56.128Z,5.87
2018-08-02T23:34:25.070Z,6.47
2018-08-02T23:36:54.057Z,5.90
2018-08-02T23:39:23.848Z,6.00
2018-08-02T23:41:53.192Z,5.80
2018-08-02T23:44:22.740Z,5.78
2018-08-02T23:46:51.842Z,5.22
2018-08-02T23:49:21.130Z,5.65
2018-08-02T23:51:51.003Z,5.72
2018-08-02T23:54:21.152Z,6.72
2018-08-02T23:56:50.829Z,5.60
2018-08-02T23:59:20.364Z,5.75
